Time;durP1;ratioP1;P1;durP2;ratioP2;P2;SDS_P1;SDS_P2;PMS_P1;PMS_P2;Temp;Humidity;BMP_temperature;BMP_pressure;BME280_temperature;BME280_humidity;BME280_pressure;Samples;Min_cycle;Max_cycle;Signal;HPM_P1;HPM_P2
2022/05/13 00:00:28;;;;;;;3.72;1.63;;;21.90;91.50;;;;;;4195919;28;20219;-77
2022/05/13 00:02:31;;;;;;;4.43;1.55;;;21.90;91.80;;;;;;4196173;28;20227;-77
2022/05/13 00:04:33;;;;;;;2.70;1.30;;;21.90;91.70;;;;;;4196072;28;20621;-77
2022/05/13 00:06:37;;;;;;;2.72;1.40;;;21.90;91.60;;;;;;4194494;28;20296;-76
2022/05/13 00:08:40;;;;;;;2.42;1.40;;;21.90;91.70;;;;;;4195052;28;20631;-77
2022/05/13 00:10:42;;;;;;;3.72;1.42;;;21.90;91.80;;;;;;4195015;28;20631;-77
2022/05/13 00:12:46;;;;;;;4.60;1.40;;;21.90;91.60;;;;;;4194690;28;20219;-77
2022/05/13 00:14:48;;;;;;;2.92;1.70;;;21.90;91.60;;;;;;4193848;28;20713;-77
2022/05/13 00:16:51;;;;;;;4.13;1.60;;;21.90;91.60;;;;;;4194193;28;20257;-77
2022/05/13 00:18:53;;;;;;;2.42;1.30;;;21.90;91.60;;;;;;4194995;28;20269;-76
2022/05/13 00:20:55;;;;;;;2.47;1.35;;;21.90;91.60;;;;;;4194481;28;20622;-77
2022/05/13 00:22:58;;;;;;;3.00;1.67;;;21.80;91.70;;;;;;4194669;28;20215;-77
2022/05/13 00:25:00;;;;;;;2.25;1.27;;;21.90;91.60;;;;;;4194822;28;20214;-77
2022/05/13 00:27:03;;;;;;;2.95;1.20;;;21.90;91.60;;;;;;4193568;28;20227;-77
2022/05/13 00:29:07;;;;;;;4.10;1.58;;;21.90;91.80;;;;;;4194763;28;20642;-77
2022/05/13 00:31:09;;;;;;;3.88;1.75;;;21.80;91.70;;;;;;4193982;28;20219;-77
2022/05/13 00:33:11;;;;;;;4.45;1.83;;;21.80;91.70;;;;;;4193961;28;20265;-77
2022/05/13 00:35:14;;;;;;;2.47;1.30;;;21.80;91.70;;;;;;4193420;28;20219;-77
2022/05/13 00:37:18;;;;;;;3.15;1.50;;;21.90;91.70;;;;;;4193653;28;21006;-77
2022/05/13 00:39:20;;;;;;;3.70;1.52;;;21.80;91.70;;;;;;4194295;28;20721;-77
2022/05/13 00:41:23;;;;;;;3.28;1.60;;;21.80;91.80;;;;;;4194136;28;20696;-77
2022/05/13 00:43:41;;;;;;;3.78;1.60;;;21.80;92.00;;;;;;4194198;28;20223;-77
2022/05/13 00:45:44;;;;;;;2.65;1.30;;;21.80;91.50;;;;;;4194245;28;20256;-77
2022/05/13 00:47:47;;;;;;;3.10;1.40;;;21.80;91.70;;;;;;4192497;28;20249;-77
2022/05/13 00:49:49;;;;;;;3.80;1.50;;;21.80;91.60;;;;;;4194310;28;20270;-76
2022/05/13 00:51:52;;;;;;;3.25;1.60;;;21.80;91.60;;;;;;4194493;28;20208;-76
2022/05/13 00:53:56;;;;;;;4.15;1.45;;;21.80;91.70;;;;;;4193291;28;20272;-77
2022/05/13 00:56:00;;;;;;;4.45;1.45;;;21.80;91.70;;;;;;4194633;28;20260;-76
2022/05/13 00:58:05;;;;;;;3.53;1.20;;;21.80;91.70;;;;;;4194574;28;20272;-76
2022/05/13 01:00:11;;;;;;;3.15;1.40;;;21.70;91.70;;;;;;4191119;28;20641;-76
2022/05/13 01:02:15;;;;;;;2.35;1.40;;;21.80;91.70;;;;;;4193922;28;20273;-77
2022/05/13 01:04:19;;;;;;;2.58;1.10;;;21.80;91.80;;;;;;4193884;28;20253;-75
2022/05/13 01:06:24;;;;;;;1.60;1.20;;;21.70;91.70;;;;;;4193727;28;20226;-76
2022/05/13 01:08:30;;;;;;;2.67;1.30;;;21.70;91.70;;;;;;4194501;28;20227;-76
2022/05/13 01:10:35;;;;;;;2.47;1.35;;;21.70;91.70;;;;;;4194127;28;20657;-77
2022/05/13 01:12:41;;;;;;;3.58;1.60;;;21.70;91.70;;;;;;4194089;28;20667;-77
2022/05/13 01:14:46;;;;;;;4.88;1.42;;;21.70;91.30;;;;;;4193085;28;20273;-76
2022/05/13 01:19:10;;;;;;;4.72;1.77;;;21.70;91.50;;;;;;4193296;28;20219;-76
2022/05/13 01:21:19;;;;;;;3.03;1.30;;;21.70;91.50;;;;;;4192969;28;20215;-77
2022/05/13 01:23:26;;;;;;;2.28;1.23;;;21.70;91.70;;;;;;4193312;28;20223;-76
2022/05/13 01:25:33;;;;;;;3.38;1.33;;;21.70;91.60;;;;;;4192726;28;21821;-76
2022/05/13 01:27:35;;;;;;;3.30;1.70;;;21.70;91.70;;;;;;4192947;28;20724;-76
2022/05/13 01:29:38;;;;;;;1.55;1.10;;;21.70;91.70;;;;;;4193618;28;20415;-77
2022/05/13 01:31:43;;;;;;;4.22;1.40;;;21.70;91.70;;;;;;4193272;28;20254;-77
2022/05/13 01:33:45;;;;;;;3.30;1.70;;;21.70;91.70;;;;;;4193524;28;20219;-77
2022/05/13 01:35:49;;;;;;;3.00;1.50;;;21.60;91.50;;;;;;4193436;28;20680;-76
2022/05/13 01:37:52;;;;;;;3.35;1.52;;;21.60;91.70;;;;;;4192371;28;20286;-77
2022/05/13 01:39:56;;;;;;;4.65;1.60;;;21.70;91.70;;;;;;4192769;28;20269;-76
2022/05/13 01:41:58;;;;;;;2.78;1.35;;;21.60;91.80;;;;;;4193059;28;20223;-76
2022/05/13 01:44:01;;;;;;;4.55;1.60;;;21.60;92.10;;;;;;4192932;28;20215;-76
2022/05/13 01:46:03;;;;;;;3.78;1.58;;;21.60;91.70;;;;;;4192483;28;20737;-76
2022/05/13 01:48:08;;;;;;;3.13;1.23;;;21.60;91.70;;;;;;4193762;28;20216;-76
2022/05/13 01:50:11;;;;;;;3.60;1.70;;;21.60;91.50;;;;;;4192515;28;20293;-76
2022/05/13 01:52:13;;;;;;;2.17;1.33;;;21.60;91.50;;;;;;4192430;28;20219;-76
2022/05/13 01:54:16;;;;;;;2.95;1.30;;;21.60;91.60;;;;;;4193181;28;20215;-77
2022/05/13 01:56:19;;;;;;;4.50;1.58;;;21.60;91.50;;;;;;4192705;28;20231;-77
2022/05/13 01:58:24;;;;;;;5.55;1.60;;;21.60;91.70;;;;;;4192008;28;20269;-77
2022/05/13 02:00:27;;;;;;;2.67;1.48;;;21.60;91.70;;;;;;4193267;28;20737;-76
2022/05/13 02:02:29;;;;;;;3.17;1.30;;;21.60;91.60;;;;;;4192692;28;20286;-76
2022/05/13 02:04:31;;;;;;;2.28;1.45;;;21.60;91.90;;;;;;4193269;28;20249;-76
2022/05/13 02:06:34;;;;;;;3.17;1.60;;;21.60;91.80;;;;;;4191718;28;20764;-77
2022/05/13 02:08:36;;;;;;;2.33;1.30;;;21.60;91.70;;;;;;4193167;28;20238;-76
2022/05/13 02:10:39;;;;;;;5.03;1.70;;;21.60;91.70;;;;;;4193395;28;20297;-76
2022/05/13 02:12:42;;;;;;;3.25;1.50;;;21.60;91.80;;;;;;4192124;28;20212;-76
2022/05/13 02:14:45;;;;;;;2.13;1.08;;;21.60;91.70;;;;;;4193599;28;20223;-76
2022/05/13 02:16:47;;;;;;;3.75;1.33;;;21.60;91.90;;;;;;4193249;28;20652;-76
2022/05/13 02:18:50;;;;;;;2.83;1.40;;;21.60;91.90;;;;;;4193623;28;20215;-76
2022/05/13 02:20:52;;;;;;;3.75;1.60;;;21.50;91.80;;;;;;4193460;28;20269;-76
2022/05/13 02:22:55;;;;;;;3.08;1.35;;;21.50;91.80;;;;;;4193318;28;20668;-76
2022/05/13 02:24:57;;;;;;;3.03;1.55;;;21.60;91.90;;;;;;4192551;28;20587;-76
2022/05/13 02:26:59;;;;;;;3.45;1.48;;;21.60;91.80;;;;;;4192365;28;20579;-76
2022/05/13 02:29:03;;;;;;;3.70;1.50;;;21.50;91.70;;;;;;4192761;28;20281;-76
2022/05/13 02:31:07;;;;;;;2.97;1.50;;;21.50;91.70;;;;;;4194181;28;20234;-76
2022/05/13 02:33:09;;;;;;;2.72;1.10;;;21.50;91.70;;;;;;4193075;28;20617;-77
2022/05/13 02:35:11;;;;;;;4.68;1.63;;;21.50;91.80;;;;;;4193087;28;20264;-76
2022/05/13 02:37:14;;;;;;;3.22;1.35;;;21.50;91.90;;;;;;4192667;28;20219;-76
2022/05/13 02:39:16;;;;;;;3.58;1.48;;;21.50;91.80;;;;;;4192698;28;20218;-76
2022/05/13 02:41:18;;;;;;;3.53;1.48;;;21.50;91.90;;;;;;4193116;28;20211;-76
2022/05/13 02:43:20;;;;;;;3.78;1.63;;;21.50;91.90;;;;;;4191569;28;20227;-77
2022/05/13 02:45:24;;;;;;;3.40;1.48;;;21.50;91.90;;;;;;4191201;28;20219;-76
2022/05/13 02:47:26;;;;;;;3.42;1.35;;;21.50;91.80;;;;;;4192367;28;20253;-77
2022/05/13 02:49:29;;;;;;;3.28;1.35;;;21.50;91.90;;;;;;4193899;28;20239;-76
2022/05/13 02:51:31;;;;;;;3.83;1.67;;;21.50;92.10;;;;;;4196097;28;20332;-77
2022/05/13 02:53:34;;;;;;;4.28;1.23;;;21.50;91.80;;;;;;4195940;28;20671;-77
2022/05/13 02:55:36;;;;;;;2.55;1.40;;;21.50;92.10;;;;;;4195729;28;20284;-77
2022/05/13 02:57:39;;;;;;;4.55;1.48;;;21.50;92.00;;;;;;4195768;28;20222;-76
2022/05/13 02:59:41;;;;;;;4.03;1.60;;;21.50;92.10;;;;;;4195784;28;20269;-76
2022/05/13 03:01:45;;;;;;;3.65;1.60;;;21.50;92.20;;;;;;4195492;28;20252;-77
2022/05/13 03:03:49;;;;;;;3.58;1.60;;;21.50;92.10;;;;;;4195440;28;20223;-76
2022/05/13 03:05:52;;;;;;;3.60;1.40;;;21.50;92.10;;;;;;4196205;28;20219;-76
2022/05/13 03:07:54;;;;;;;3.42;1.30;;;21.50;92.00;;;;;;4193442;28;20740;-76
2022/05/13 03:09:56;;;;;;;3.63;1.70;;;21.40;91.90;;;;;;4195835;28;20708;-77
2022/05/13 03:11:59;;;;;;;3.38;1.30;;;21.40;92.00;;;;;;4195056;28;20660;-77
2022/05/13 03:14:01;;;;;;;2.97;1.52;;;21.50;92.10;;;;;;4195964;28;20276;-76
2022/05/13 03:16:05;;;;;;;3.97;1.48;;;21.50;92.10;;;;;;4195836;28;20226;-76
2022/05/13 03:18:09;;;;;;;3.40;1.70;;;21.40;92.10;;;;;;4194818;28;20668;-77
2022/05/13 03:20:17;;;;;;;4.43;1.70;;;21.40;92.00;;;;;;4195638;28;20721;-76
2022/05/13 03:22:19;;;;;;;5.28;1.58;;;21.40;92.20;;;;;;4196152;28;20218;-76
2022/05/13 03:24:21;;;;;;;3.75;1.42;;;21.40;92.10;;;;;;4195890;28;20634;-77
2022/05/13 03:26:24;;;;;;;5.35;1.50;;;21.40;92.20;;;;;;4195361;28;20211;-76
2022/05/13 03:28:27;;;;;;;4.40;1.40;;;21.40;92.20;;;;;;4195384;28;20219;-77
2022/05/13 03:30:29;;;;;;;2.88;1.25;;;21.40;92.40;;;;;;4195606;28;20668;-77
2022/05/13 03:32:32;;;;;;;4.43;1.55;;;21.40;92.40;;;;;;4195926;28;20222;-77
2022/05/13 03:34:38;;;;;;;3.83;1.55;;;21.40;92.00;;;;;;4194341;28;20223;-76
2022/05/13 03:36:40;;;;;;;3.00;1.52;;;21.40;92.10;;;;;;4195352;28;20215;-76
2022/05/13 03:38:43;;;;;;;4.75;1.58;;;21.40;92.10;;;;;;4194804;28;20292;-77
2022/05/13 03:40:46;;;;;;;5.80;1.70;;;21.40;92.10;;;;;;4194361;28;20237;-77
2022/05/13 03:42:49;;;;;;;4.13;1.60;;;21.40;92.10;;;;;;4194616;28;20679;-77
2022/05/13 03:44:51;;;;;;;3.33;1.33;;;21.40;92.20;;;;;;4194847;28;20679;-76
2022/05/13 03:46:53;;;;;;;4.72;1.58;;;21.40;92.20;;;;;;4193900;28;20265;-77
2022/05/13 03:48:56;;;;;;;3.78;1.50;;;21.40;92.30;;;;;;4194800;28;20227;-76
2022/05/13 03:51:00;;;;;;;3.63;1.17;;;21.40;92.30;;;;;;4194626;28;20243;-77
2022/05/13 03:53:03;;;;;;;3.55;1.33;;;21.40;92.20;;;;;;4195330;28;20219;-76
2022/05/13 03:55:07;;;;;;;4.22;1.75;;;21.40;92.20;;;;;;4195254;28;20231;-77
2022/05/13 03:57:10;;;;;;;3.72;1.40;;;21.40;92.20;;;;;;4195056;28;20272;-77
2022/05/13 03:59:12;;;;;;;3.63;1.63;;;21.30;92.40;;;;;;4195091;28;20865;-77
2022/05/13 04:01:14;;;;;;;3.25;1.50;;;21.40;92.50;;;;;;4194743;28;20610;-76
2022/05/13 04:03:18;;;;;;;3.50;1.70;;;21.30;92.40;;;;;;4195072;28;20268;-76
2022/05/13 04:10:04;;;;;;;4.18;1.60;;;21.40;92.50;;;;;;4166377;28;20220;-76
2022/05/13 04:16:48;;;;;;;4.78;1.50;;;21.30;92.40;;;;;;4162315;28;20196;-77
2022/05/13 04:18:51;;;;;;;3.83;1.60;;;21.30;92.40;;;;;;4161653;28;20258;-77
2022/05/13 04:20:54;;;;;;;5.35;1.65;;;21.30;92.50;;;;;;4160589;28;20208;-76
2022/05/13 04:22:57;;;;;;;4.30;1.98;;;21.30;92.90;;;;;;4161397;28;20220;-76
2022/05/13 04:25:01;;;;;;;3.55;1.35;;;21.30;92.60;;;;;;4162156;28;20220;-77
2022/05/13 04:27:03;;;;;;;3.63;1.48;;;21.30;92.30;;;;;;4162086;28;20228;-77
2022/05/13 04:29:06;;;;;;;4.25;1.40;;;21.30;92.40;;;;;;4161849;28;20216;-77
2022/05/13 04:31:09;;;;;;;4.45;1.60;;;21.30;92.50;;;;;;4161937;28;20669;-77
2022/05/13 04:33:13;;;;;;;3.95;1.40;;;21.30;92.50;;;;;;4161967;28;20277;-77
2022/05/13 04:35:16;;;;;;;2.95;1.50;;;21.30;92.60;;;;;;4161021;28;20224;-76
2022/05/13 04:37:18;;;;;;;2.90;1.20;;;21.30;92.90;;;;;;4162305;28;20267;-77
2022/05/13 04:39:22;;;;;;;3.08;1.40;;;21.30;92.60;;;;;;4161851;28;20643;-77
2022/05/13 04:43:45;;;;;;;4.63;1.63;;;21.30;92.70;;;;;;4161760;28;20212;-77
2022/05/13 04:45:48;;;;;;;4.28;2.00;;;21.30;92.70;;;;;;4161053;28;20217;-76
2022/05/13 04:50:13;;;;;;;3.55;1.48;;;21.30;92.60;;;;;;4160333;28;20216;-76
2022/05/13 04:52:16;;;;;;;3.53;1.80;;;21.30;92.70;;;;;;4161544;28;20236;-77
2022/05/13 04:54:18;;;;;;;4.57;1.50;;;21.30;92.70;;;;;;4161460;28;20664;-77
2022/05/13 04:56:23;;;;;;;3.75;1.90;;;21.30;92.70;;;;;;4160978;28;20271;-77
2022/05/13 04:58:27;;;;;;;3.88;1.58;;;21.30;92.80;;;;;;4161680;28;20318;-77
2022/05/13 05:00:30;;;;;;;4.50;1.75;;;21.30;92.70;;;;;;4159993;28;20224;-77
2022/05/13 05:02:33;;;;;;;4.82;1.70;;;21.20;92.60;;;;;;4160473;28;20216;-77
2022/05/13 05:04:35;;;;;;;4.25;1.55;;;21.30;92.90;;;;;;4160862;28;20274;-77
2022/05/13 05:06:37;;;;;;;3.42;1.25;;;21.30;92.80;;;;;;4178226;28;20264;-77
2022/05/13 05:08:41;;;;;;;3.83;1.65;;;21.30;92.90;;;;;;4194549;28;20253;-76
2022/05/13 05:10:45;;;;;;;5.22;1.67;;;21.30;92.90;;;;;;4193265;28;20227;-76
2022/05/13 05:12:49;;;;;;;4.93;1.60;;;21.30;92.90;;;;;;4193046;28;20300;-76
2022/05/13 05:14:52;;;;;;;4.60;1.70;;;21.30;92.70;;;;;;4193958;28;20328;-76
2022/05/13 05:16:54;;;;;;;4.15;1.83;;;21.30;92.90;;;;;;4193301;28;20284;-76
2022/05/13 05:18:59;;;;;;;2.25;1.17;;;21.30;92.70;;;;;;4193761;28;20717;-76
2022/05/13 05:21:02;;;;;;;5.05;1.48;;;21.30;92.90;;;;;;4192977;28;20231;-76
2022/05/13 05:23:05;;;;;;;3.13;1.48;;;21.30;92.80;;;;;;4193109;28;20683;-76
2022/05/13 05:25:12;;;;;;;4.95;1.63;;;21.30;93.00;;;;;;4193310;28;20223;-76
2022/05/13 05:27:15;;;;;;;5.20;1.60;;;21.30;92.90;;;;;;4193202;28;20207;-77
2022/05/13 05:29:19;;;;;;;5.13;1.77;;;21.30;92.90;;;;;;4193493;28;20256;-76
2022/05/13 05:31:21;;;;;;;2.30;1.20;;;21.30;93.00;;;;;;4192935;28;20280;-77
2022/05/13 05:33:24;;;;;;;3.85;1.52;;;21.30;93.00;;;;;;4192148;28;20242;-76
2022/05/13 05:35:26;;;;;;;3.80;1.55;;;21.30;93.00;;;;;;4193251;28;20268;-76
2022/05/13 05:37:28;;;;;;;4.78;1.83;;;21.30;93.00;;;;;;4193508;28;20227;-76
2022/05/13 05:39:31;;;;;;;3.30;1.40;;;21.30;93.00;;;;;;4193332;28;20219;-76
2022/05/13 05:41:33;;;;;;;3.47;1.30;;;21.30;93.10;;;;;;4192908;28;20231;-76
2022/05/13 05:43:36;;;;;;;3.38;1.35;;;21.30;93.20;;;;;;4193679;28;20215;-76
2022/05/13 05:45:40;;;;;;;4.07;1.52;;;21.30;93.00;;;;;;4193551;28;21511;-76
2022/05/13 05:47:42;;;;;;;4.53;1.73;;;21.30;93.00;;;;;;4193078;28;20223;-76
2022/05/13 05:49:45;;;;;;;4.55;1.67;;;21.30;93.10;;;;;;4193059;28;20241;-76
2022/05/13 05:51:47;;;;;;;2.95;1.63;;;21.30;93.10;;;;;;4192656;28;20227;-76
2022/05/13 05:58:31;;;;;;;4.47;1.77;;;21.30;93.00;;;;;;4192973;28;20215;-76
2022/05/13 06:00:36;;;;;;;3.08;1.27;;;21.30;93.10;;;;;;4191915;28;20219;-76
2022/05/13 06:02:39;;;;;;;3.38;1.52;;;21.30;93.20;;;;;;4192945;28;20216;-76
2022/05/13 06:04:42;;;;;;;3.25;1.48;;;21.30;93.20;;;;;;4192426;28;20261;-76
2022/05/13 06:06:44;;;;;;;3.58;1.40;;;21.30;93.10;;;;;;4192324;28;20280;-76
2022/05/13 06:08:47;;;;;;;4.80;1.60;;;21.30;93.20;;;;;;4192094;28;20219;-76
2022/05/13 06:10:49;;;;;;;4.85;1.73;;;21.30;93.20;;;;;;4192685;28;21098;-76
2022/05/13 06:12:52;;;;;;;4.22;1.63;;;21.30;93.40;;;;;;4192661;28;20761;-76
2022/05/13 06:14:54;;;;;;;5.65;1.63;;;21.30;93.40;;;;;;4190941;28;20273;-76
2022/05/13 06:16:57;;;;;;;5.25;1.73;;;21.30;93.20;;;;;;4191661;28;20215;-76
2022/05/13 06:19:01;;;;;;;5.65;1.90;;;21.30;93.20;;;;;;4191315;28;20245;-76
2022/05/13 06:21:04;;;;;;;3.72;1.45;;;21.30;93.30;;;;;;4191372;28;20219;-76
2022/05/13 06:23:06;;;;;;;3.90;1.52;;;21.30;93.40;;;;;;4192663;28;20223;-76
2022/05/13 06:25:10;;;;;;;4.20;1.50;;;21.30;93.30;;;;;;4190757;28;20268;-76
2022/05/13 06:27:13;;;;;;;4.10;1.52;;;21.40;93.30;;;;;;4192833;28;20203;-76
2022/05/13 06:29:16;;;;;;;5.82;1.63;;;21.30;93.30;;;;;;4192506;28;20219;-76
2022/05/13 06:31:19;;;;;;;7.57;2.25;;;21.30;93.50;;;;;;4191696;28;20276;-76
2022/05/13 06:33:22;;;;;;;5.28;1.60;;;21.30;93.40;;;;;;4192514;28;20239;-76
2022/05/13 06:35:28;;;;;;;4.00;1.88;;;21.30;93.50;;;;;;4191938;28;20231;-76
2022/05/13 06:37:34;;;;;;;4.40;1.42;;;21.30;93.60;;;;;;4192892;28;20284;-76
2022/05/13 06:39:36;;;;;;;3.63;1.33;;;21.30;93.50;;;;;;4191983;28;20253;-76
2022/05/13 06:41:40;;;;;;;6.40;1.67;;;21.30;93.60;;;;;;4191395;28;20219;-76
2022/05/13 06:43:42;;;;;;;4.65;1.65;;;21.30;93.80;;;;;;4192271;28;20211;-76
2022/05/13 06:45:44;;;;;;;4.28;1.40;;;21.30;94.00;;;;;;4192337;28;20697;-76
2022/05/13 06:47:47;;;;;;;3.92;1.58;;;21.30;93.70;;;;;;4192948;28;20607;-76
2022/05/13 06:49:49;;;;;;;5.35;1.70;;;21.30;93.70;;;;;;4192123;28;20567;-76
2022/05/13 06:51:53;;;;;;;3.72;1.52;;;21.30;93.90;;;;;;4190409;28;20722;-76
2022/05/13 06:53:56;;;;;;;6.07;2.17;;;21.40;93.90;;;;;;4190127;28;20235;-76
2022/05/13 06:55:58;;;;;;;8.02;2.35;;;21.10;94.40;;;;;;4191227;28;20264;-76
2022/05/13 06:58:01;;;;;;;9.10;2.42;;;20.70;94.80;;;;;;4191402;28;20256;-76
2022/05/13 07:00:04;;;;;;;7.80;2.25;;;20.70;95.00;;;;;;4189287;28;20923;-76
2022/05/13 07:02:08;;;;;;;9.35;1.83;;;20.70;94.90;;;;;;4186362;28;20274;-77
2022/05/13 07:04:10;;;;;;;6.55;2.10;;;20.90;95.20;;;;;;4191121;28;20237;-79
2022/05/13 07:06:12;;;;;;;6.63;2.22;;;21.00;95.50;;;;;;4190513;28;20272;-80
2022/05/13 07:08:16;;;;;;;6.18;1.90;;;21.10;95.10;;;;;;4190231;28;20223;-80
2022/05/13 07:10:19;;;;;;;8.18;2.05;;;21.20;95.10;;;;;;4185074;28;20223;-77
2022/05/13 07:12:21;;;;;;;10.70;2.00;;;21.20;95.30;;;;;;4190942;28;20215;-77
2022/05/13 07:14:24;;;;;;;7.95;2.00;;;21.30;95.00;;;;;;4192135;28;20215;-77
2022/05/13 07:16:26;;;;;;;5.50;1.83;;;21.40;95.10;;;;;;4190156;28;20245;-77
2022/05/13 07:18:29;;;;;;;6.53;2.08;;;21.40;94.80;;;;;;4193226;28;20211;-77
2022/05/13 07:20:31;;;;;;;8.80;1.75;;;21.50;94.70;;;;;;4191511;28;20216;-77
2022/05/13 07:22:34;;;;;;;10.25;1.95;;;21.50;94.60;;;;;;4192281;28;20219;-77
2022/05/13 07:24:37;;;;;;;10.50;2.22;;;21.60;95.30;;;;;;4191360;28;20260;-76
2022/05/13 07:26:40;;;;;;;5.95;2.00;;;21.60;94.60;;;;;;4191648;28;20215;-78
2022/05/13 07:28:42;;;;;;;7.50;2.35;;;21.60;94.90;;;;;;4193161;28;20265;-78
2022/05/13 07:30:46;;;;;;;5.45;1.63;;;21.70;95.00;;;;;;4185917;28;20220;-78
2022/05/13 07:32:48;;;;;;;7.40;2.05;;;21.70;95.10;;;;;;4189798;28;20215;-78
2022/05/13 07:34:51;;;;;;;7.82;2.10;;;21.70;95.20;;;;;;4191464;28;20280;-78
2022/05/13 07:36:54;;;;;;;5.82;1.70;;;21.70;94.90;;;;;;4189795;28;20218;-79
2022/05/13 07:41:18;;;;;;;4.15;1.80;;;21.80;95.10;;;;;;4195187;28;20215;-78
2022/05/13 07:43:21;;;;;;;4.05;1.50;;;21.90;95.10;;;;;;4195883;28;20568;-79
2022/05/13 07:45:23;;;;;;;6.10;2.08;;;21.90;94.90;;;;;;4194130;28;20203;-79
2022/05/13 07:47:26;;;;;;;7.05;1.98;;;21.90;95.10;;;;;;4194153;28;20273;-82
2022/05/13 07:49:29;;;;;;;6.57;1.67;;;21.90;95.00;;;;;;4188951;28;20215;-81
2022/05/13 07:51:32;;;;;;;7.78;2.05;;;21.90;94.70;;;;;;4192975;28;20219;-77
2022/05/13 07:53:34;;;;;;;6.57;1.70;;;21.90;95.00;;;;;;4191738;28;20319;-78
2022/05/13 07:55:37;;;;;;;5.22;1.55;;;21.80;95.00;;;;;;4194301;28;20219;-79
2022/05/13 07:57:42;;;;;;;3.42;1.60;;;21.90;95.00;;;;;;4193072;28;20219;-79
2022/05/13 08:02:21;;;;;;;7.93;1.85;;;22.00;95.10;;;;;;4195479;28;20389;-80
2022/05/13 08:04:23;;;;;;;10.27;1.85;;;22.00;95.10;;;;;;4192633;28;20671;-82
2022/05/13 08:06:29;;;;;;;4.38;1.92;;;22.10;95.20;;;;;;4196165;28;20284;-83
2022/05/13 08:08:36;;;;;;;4.50;1.50;;;22.10;95.10;;;;;;4193354;28;20223;-79
2022/05/13 08:10:40;;;;;;;5.82;1.65;;;22.00;95.40;;;;;;4192463;28;20223;-78
2022/05/13 08:12:44;;;;;;;5.20;1.73;;;22.10;95.50;;;;;;4193921;28;20269;-78
2022/05/13 08:14:46;;;;;;;5.72;1.45;;;22.10;95.20;;;;;;4192814;28;20300;-78
2022/05/13 08:16:50;;;;;;;6.80;1.98;;;22.10;95.20;;;;;;4192931;28;20238;-79
2022/05/13 08:18:54;;;;;;;8.38;2.15;;;22.20;95.30;;;;;;4191707;28;20562;-80
2022/05/13 08:20:56;;;;;;;6.85;1.77;;;22.10;95.30;;;;;;4194650;28;20257;-80
2022/05/13 08:22:59;;;;;;;8.73;1.70;;;22.10;95.50;;;;;;4192803;28;20215;-82
2022/05/13 08:25:01;;;;;;;11.25;2.10;;;22.20;95.70;;;;;;4191445;28;20356;-81
2022/05/13 08:27:05;;;;;;;7.72;1.92;;;22.20;95.50;;;;;;4194035;28;20253;-78
2022/05/13 08:29:09;;;;;;;7.82;1.90;;;22.20;95.50;;;;;;4193342;28;20261;-78
2022/05/13 08:31:13;;;;;;;3.83;1.58;;;22.10;95.40;;;;;;4192536;28;20219;-79
2022/05/13 08:33:16;;;;;;;5.07;1.90;;;22.10;95.40;;;;;;4187693;28;20620;-80
2022/05/13 08:35:20;;;;;;;9.00;1.85;;;22.10;95.40;;;;;;4192266;28;20211;-80
2022/05/13 08:37:23;;;;;;;5.25;1.80;;;22.20;95.30;;;;;;4188949;28;20667;-80
2022/05/13 08:39:25;;;;;;;7.72;1.70;;;22.20;96.00;;;;;;4191644;28;20224;-79
2022/05/13 08:41:43;;;;;;;5.53;1.77;;;22.30;95.50;;;;;;4192307;28;20215;-77
2022/05/13 08:43:50;;;;;;;5.43;1.60;;;22.30;95.50;;;;;;4190456;28;20210;-79
2022/05/13 08:45:56;;;;;;;5.03;1.58;;;22.30;95.40;;;;;;4189721;28;20259;-78
2022/05/13 08:47:59;;;;;;;4.93;1.75;;;22.40;95.30;;;;;;4187791;28;20210;-79
2022/05/13 08:50:08;;;;;;;4.18;1.52;;;22.40;95.30;;;;;;4189714;28;20604;-81
2022/05/13 08:54:37;;;;;;;6.25;1.80;;;22.40;95.40;;;;;;4187768;28;20227;-77
2022/05/13 08:56:40;;;;;;;6.55;1.80;;;22.50;95.30;;;;;;4189640;28;20284;-80
2022/05/13 08:58:47;;;;;;;6.30;1.65;;;22.50;95.50;;;;;;4189923;28;20215;-80
2022/05/13 09:00:51;;;;;;;5.75;1.80;;;22.50;95.50;;;;;;4178421;28;20264;-79
2022/05/13 09:03:01;;;;;;;4.85;1.75;;;22.60;95.70;;;;;;4182573;28;20273;-81
2022/05/13 09:05:09;;;;;;;6.43;1.75;;;22.60;95.40;;;;;;4183604;28;20265;-79
2022/05/13 09:07:14;;;;;;;8.23;2.05;;;22.60;95.70;;;;;;4184989;28;20238;-76
2022/05/13 09:09:17;;;;;;;6.78;1.60;;;22.50;95.80;;;;;;4188327;28;20264;-76
2022/05/13 09:11:26;;;;;;;6.80;1.45;;;22.50;95.80;;;;;;4185419;28;20199;-78
2022/05/13 09:13:35;;;;;;;10.50;1.80;;;22.50;95.80;;;;;;4188923;28;20219;-81
2022/05/13 09:15:43;;;;;;;5.00;1.90;;;22.60;96.00;;;;;;4190401;28;20281;-83
2022/05/13 09:18:00;;;;;;;6.00;1.70;;;22.60;95.80;;;;;;4191122;28;20219;-82
2022/05/13 09:20:06;;;;;;;5.65;1.35;;;22.60;95.80;;;;;;4188352;28;20231;-82
2022/05/13 09:22:11;;;;;;;6.40;1.55;;;22.70;95.80;;;;;;4185725;28;20245;-84
2022/05/13 09:24:13;;;;;;;5.63;1.60;;;22.70;95.90;;;;;;4188852;28;20211;-82
2022/05/13 09:26:19;;;;;;;9.20;1.88;;;22.70;95.80;;;;;;4189924;28;20219;-80
2022/05/13 09:28:22;;;;;;;6.80;1.67;;;22.70;95.80;;;;;;4191350;28;20207;-81
2022/05/13 09:30:33;;;;;;;5.22;1.58;;;22.70;95.80;;;;;;4189511;28;20231;-80
2022/05/13 09:32:36;;;;;;;4.70;1.75;;;22.70;95.80;;;;;;4183678;28;20885;-80
2022/05/13 09:34:47;;;;;;;7.28;2.13;;;22.70;96.20;;;;;;4189600;28;20296;-81
2022/05/13 09:36:50;;;;;;;3.97;1.65;;;22.80;96.00;;;;;;4188929;28;20349;-84
2022/05/13 09:38:55;;;;;;;3.63;1.40;;;22.80;96.00;;;;;;4190701;28;20280;-84
2022/05/13 09:41:01;;;;;;;6.20;2.15;;;22.80;96.10;;;;;;4189709;28;20257;-81
2022/05/13 09:43:03;;;;;;;4.88;1.67;;;22.80;96.00;;;;;;4185253;28;20219;-81
2022/05/13 09:45:18;;;;;;;5.93;1.75;;;22.80;95.90;;;;;;4188897;28;20297;-85
2022/05/13 09:47:30;;;;;;;4.40;1.70;;;22.80;96.00;;;;;;4190249;28;20682;-82
2022/05/13 09:49:39;;;;;;;4.53;1.65;;;22.80;96.10;;;;;;4188614;28;20215;-84
2022/05/13 09:51:55;;;;;;;6.93;1.83;;;22.80;96.40;;;;;;4191236;28;20206;-84
2022/05/13 09:54:02;;;;;;;6.13;1.60;;;22.90;96.20;;;;;;4181054;28;20266;-82
2022/05/13 09:56:06;;;;;;;7.30;2.10;;;22.80;96.70;;;;;;4191443;28;20226;-82
2022/05/13 09:58:18;;;;;;;6.57;2.03;;;22.80;96.30;;;;;;4189941;28;20222;-83
2022/05/13 10:00:25;;;;;;;8.73;1.95;;;22.80;96.30;;;;;;4187792;28;20214;-81
2022/05/13 10:02:36;;;;;;;4.72;1.60;;;22.90;96.20;;;;;;4187356;28;20257;-82
2022/05/13 10:04:38;;;;;;;5.57;1.70;;;22.80;96.20;;;;;;4185805;28;20257;-85
2022/05/13 10:06:43;;;;;;;8.80;1.70;;;22.90;96.20;;;;;;4186950;28;20935;-83
2022/05/13 10:13:57;;;;;;;12.80;2.33;;;22.80;96.30;;;;;;4185366;28;20219;-85
2022/05/13 10:14:00;;;;;;;7.70;2.15;;;22.80;96.30;;;;;;4184754;28;20219;-78
2022/05/13 10:16:05;;;;;;;9.63;2.05;;;22.80;96.40;;;;;;4189686;28;20288;-85
2022/05/13 10:18:19;;;;;;;7.20;1.75;;;22.80;96.40;;;;;;4189027;28;20227;-82
2022/05/13 10:20:28;;;;;;;5.40;1.88;;;22.80;96.40;;;;;;4188259;28;20219;-79
2022/05/13 10:22:39;;;;;;;6.03;1.95;;;22.90;96.40;;;;;;4190397;28;20218;-82
2022/05/13 10:24:47;;;;;;;5.82;1.88;;;22.90;96.40;;;;;;4184905;28;20223;-79
2022/05/13 10:26:51;;;;;;;5.25;1.65;;;22.90;96.30;;;;;;4190069;28;20650;-81
2022/05/13 10:28:58;;;;;;;3.05;1.35;;;23.00;96.40;;;;;;4188413;28;20211;-79
2022/05/13 10:31:08;;;;;;;6.55;1.90;;;22.90;96.40;;;;;;4189002;28;20269;-81
2022/05/13 10:33:18;;;;;;;5.88;1.77;;;22.90;96.40;;;;;;4186374;28;20263;-78
2022/05/13 10:35:25;;;;;;;6.32;1.67;;;23.00;96.40;;;;;;4184679;28;20227;-82
2022/05/13 10:37:34;;;;;;;8.60;2.00;;;23.00;96.60;;;;;;4188688;28;20271;-79
2022/05/13 10:39:51;;;;;;;6.97;1.80;;;23.00;96.30;;;;;;4187957;28;20211;-78
2022/05/13 10:41:58;;;;;;;3.88;1.63;;;23.00;96.50;;;;;;4190080;28;20264;-81
2022/05/13 10:44:07;;;;;;;10.07;2.53;;;23.00;96.50;;;;;;4188420;28;20215;-82
2022/05/13 10:46:20;;;;;;;7.38;1.95;;;23.00;96.40;;;;;;4188615;28;20264;-82
2022/05/13 10:48:28;;;;;;;9.95;1.85;;;23.00;96.40;;;;;;4182926;28;20269;-80
2022/05/13 10:50:36;;;;;;;7.25;2.15;;;22.90;96.60;;;;;;4188758;28;20198;-82
2022/05/13 10:52:51;;;;;;;10.45;2.33;;;23.00;96.60;;;;;;4187567;28;20218;-80
2022/05/13 10:54:57;;;;;;;5.75;1.75;;;23.00;96.50;;;;;;4186376;28;20268;-81
2022/05/13 10:57:09;;;;;;;5.93;1.70;;;23.00;96.40;;;;;;4186140;28;20218;-83
2022/05/13 10:59:31;;;;;;;10.38;2.13;;;23.00;96.30;;;;;;4188070;28;20227;-82
2022/05/13 11:01:44;;;;;;;6.43;1.83;;;23.00;96.30;;;;;;4185403;28;20215;-79
2022/05/13 11:03:59;;;;;;;14.10;2.38;;;23.00;96.30;;;;;;4185172;28;20272;-79
2022/05/13 11:06:36;;;;;;;9.23;1.85;;;23.10;96.40;;;;;;4187721;28;20296;-81
2022/05/13 11:08:50;;;;;;;10.63;2.05;;;23.00;96.30;;;;;;4189311;28;20299;-79
2022/05/13 11:11:13;;;;;;;6.25;1.80;;;23.10;96.40;;;;;;4186684;28;20896;-80
2022/05/13 11:13:21;;;;;;;11.23;1.92;;;23.10;96.40;;;;;;4188718;28;20219;-78
2022/05/13 11:15:32;;;;;;;9.88;2.13;;;23.10;96.30;;;;;;4191224;28;20230;-76
2022/05/13 11:17:43;;;;;;;6.03;1.83;;;23.10;96.30;;;;;;4194025;28;20683;-78